Effective Sunday, March 17, 2024, the National Weather Service National Data Buoy Center will discontinue its Dial-A-Buoy Interactive Voice Response system. For more information, see Service Change Notice 24-06 (PDF).

Station NKLA2 - Nikolski White Alice Image indicating link to RSS feed of recent meteorological observations for station NKLA2


Conditions at NKLA2 as of
(4:04 pm AKST on 02/29/2024)
0104 GMT on 03/01/2024:
     

Click on the graph icon in the table below to see a time series plot of the last five days of that observation.

5-day plot - Air Temperature Air Temperature (ATMP): 30.2 °F
5-day plot - Dew Point Dew Point (DEWP): 29.5 °F
Previous observations
TIME
(AKST)
5-day plot - Wind Direction
WDIR
 
5-day plot - Wind Speed
WSPD
kts
5-day plot - Wind Gust
GST
kts
5-day plot - Wave Height
WVHT
ft
5-day plot - Dominant Wave Period
DPD
sec
5-day plot - Average Wave Period
APD
sec
5-day plot - Mean Wave Direction
MWD
 
5-day plot - Atmospheric Pressure
PRES
in
5-day plot - Pressure Tendency
PTDY
in
5-day plot - Air Temperature
ATMP
°F
5-day plot - Water Temperature
WTMP
°F
5-day plot - Dew Point
DEWP
°F
5-day plot - Salinity
SAL
psu
5-day plot - Visibility
VIS
nmi
5-day plot - Tide (above MLLW)
TIDE
ft
2024-02-29 03:54 pm--------- 30.2- 29.5---
2024-02-29 03:45 pm--------- 30.2- 29.5---
2024-02-29 03:34 pm--------- 30.0- 29.3---
2024-02-29 03:24 pm--------- 30.0- 29.3---
2024-02-29 03:14 pm E 21.0 28.9------ 30.0- 29.1---
2024-02-29 02:54 pm E 28.9 40.0------ 30.2- 28.9---
2024-02-29 02:15 pm E 27.0 36.9------ 30.6- 28.2---
2024-02-29 02:04 pm E 27.0 36.9------ 30.6- 28.4---
2024-02-29 01:54 pm E 28.9 38.1------ 30.4- 27.9---
2024-02-29 01:45 pm E 29.9 39.0------ 30.2- 28.0---
2024-02-29 01:35 pm E 28.0 36.9------ 30.2- 28.0---
2024-02-29 01:25 pm E 27.0 35.9------ 29.7- 28.2---
2024-02-29 01:15 pm E 28.9 36.9------ 29.7- 28.0---
2024-02-29 01:04 pm E 26.0 33.0------ 29.7- 28.0---
2024-02-29 12:54 pm E 27.0 35.0------ 29.7- 27.9---
2024-02-29 12:45 pm E 25.1 34.0------ 29.5- 27.7---
2024-02-29 12:34 pm E 27.0 34.0------ 29.7- 27.3---
2024-02-29 12:24 pm E 26.0 35.0------ 29.7- 27.3---
2024-02-29 12:15 pm E 25.1 35.0------ 29.5- 27.3---
2024-02-29 12:05 pm E 26.0 35.0------ 29.5- 27.0---
2024-02-29 11:55 am E 25.1 34.0------ 29.5- 26.2---
2024-02-29 11:45 am E 25.1 34.0------ 29.5- 26.1---
2024-02-29 11:34 am E 24.1 31.1------ 29.1- 26.2---
2024-02-29 11:25 am E 26.0 32.1------ 29.1- 25.7---
2024-02-29 11:15 am E 26.0 31.1------ 28.9- 25.5---
2024-02-29 11:05 am E 22.9 31.1------ 28.9- 25.5---
2024-02-29 10:55 am E 24.1 33.0------ 28.9- 25.3---
2024-02-29 10:45 am E 25.1 35.0------ 28.9- 25.2---
2024-02-29 10:35 am E 24.1 32.1------ 28.9- 25.2---
2024-02-29 10:25 am E 22.9 28.9------ 28.8- 25.0---
2024-02-29 10:15 am E 24.1 29.9------ 28.6- 24.8---
2024-02-29 10:04 am E 24.1 28.9------ 28.6- 24.8---
2024-02-29 09:55 am E 24.1 31.1------ 28.6- 24.6---
2024-02-29 09:44 am E 22.9 29.9------ 28.4- 24.4---
2024-02-29 09:35 am E 22.9 28.9------ 28.2- 24.3---
2024-02-29 09:25 am E 21.0 26.0------ 28.2- 24.6---
2024-02-29 09:14 am E 22.0 27.0------ 28.0- 24.3---
2024-02-29 09:04 am E 22.0 27.0------ 28.0- 24.1---
2024-02-29 08:55 am E 22.0 28.0------ 28.0- 24.1---
2024-02-29 08:45 am E 21.0 26.0------ 28.0- 24.1---
2024-02-29 08:35 am E 21.0 26.0------ 28.0- 24.3---
2024-02-29 08:25 am E 20.0 26.0------ 28.0- 24.3---
2024-02-29 08:15 am E 19.0 24.1------ 28.0- 24.3---
2024-02-29 08:05 am E 18.1 21.0------ 28.0- 24.3---
2024-02-29 07:55 am E 19.0 22.9------ 28.0- 24.3---
2024-02-29 07:45 am E 19.0 25.1------ 28.2- 24.3---
2024-02-29 07:25 am E 17.1 22.0------ 27.9- 24.4---
2024-02-29 07:15 am E 17.1 22.9------ 28.0- 24.3---
2024-02-29 07:05 am E 15.0 20.0------ 27.9- 24.4---
2024-02-29 06:54 am E 15.9 19.0------ 28.0- 24.4---
2024-02-29 06:44 am E 15.9 19.0------ 28.0- 24.1---
2024-02-29 06:34 am E 15.9 19.0------ 28.0- 23.9---
2024-02-29 06:24 am E 15.0 19.0------ 28.0- 23.9---
2024-02-29 06:15 am E 14.0 20.0------ 28.0- 24.1---
2024-02-29 06:05 am E 15.0 18.1------ 28.0- 24.1---
2024-02-29 05:54 am E 13.0 17.1------ 28.0- 24.3---
2024-02-29 05:44 am E 13.0 17.1------ 27.9- 24.3---
2024-02-29 05:35 am E 14.0 18.1------ 27.9- 24.3---
2024-02-29 05:24 am E 13.0 17.1------ 27.9- 24.3---
2024-02-29 05:14 am E 13.0 15.9------ 27.9- 24.3---
2024-02-29 05:05 am E 12.0 17.1------ 28.0- 24.3---
2024-02-29 04:55 am E 13.0 17.1------ 28.0- 24.4---
2024-02-29 04:45 am E 12.0 15.0------ 28.4- 24.6---
2024-02-29 04:35 am E 9.9 13.0------ 28.6- 24.8---
2024-02-29 04:24 am E 9.9 14.0------ 28.6- 24.8---
2024-02-29 04:15 am E 9.9 15.0------ 28.6- 25.0---
2024-02-29 04:05 amESE 11.1 14.0------ 28.8- 25.0---
2024-02-29 03:54 amESE 11.1 14.0------ 28.8- 25.2---
2024-02-29 03:44 amESE 11.1 13.0------ 28.8- 25.2---
2024-02-29 03:35 amESE 11.1 14.0------ 28.8- 25.3---
2024-02-29 03:24 am SE 12.0 14.0------ 28.8- 25.7---
2024-02-29 03:14 am SE 12.0 14.0------ 28.8- 27.1---
2024-02-29 03:05 am SE 11.1 13.0------ 28.4- 27.5---
2024-02-29 02:54 am SE 9.9 13.0------ 28.4- 27.7---
2024-02-29 02:44 amSSE 11.1 13.0------ 28.4- 27.3---
2024-02-29 02:34 am SE 11.1 13.0------ 28.4- 27.0---
2024-02-29 02:24 am SE 12.0 15.9------ 28.6- 26.4---
2024-02-29 02:14 amSSE 9.9 15.9------ 29.1- 25.5---
2024-02-29 02:05 am S 9.9 15.9------ 29.7- 24.4---
2024-02-29 01:54 am S 8.0 11.1------ 29.7- 24.1---
2024-02-29 01:44 am S 7.0 9.9------ 29.8- 24.1---
2024-02-29 01:35 am S 6.0 8.0------ 29.8- 24.6---
2024-02-29 01:25 amSSE 1.9 7.0------ 31.1- 24.1---
2024-02-29 01:15 am N 1.9 4.1------ 31.1- 24.4---
2024-02-29 01:04 am N 2.9 6.0------ 30.9- 24.4---
2024-02-29 12:54 amNNW 4.1 6.0------ 30.4- 24.4---
2024-02-29 12:45 amNNW 7.0 13.0------ 29.7- 24.6---
2024-02-29 12:35 amNNW 8.9 14.0------ 29.7- 24.4---
2024-02-29 12:24 amNNW 9.9 15.9------ 29.7- 24.4---
2024-02-29 12:16 amNNW 11.1 18.1------ 29.7- 24.4---
2024-02-29 12:04 amNNW 13.0 20.0------ 29.5- 24.6---
2024-02-28 11:54 pmNNW 15.0 22.0------ 29.3- 24.6---
2024-02-28 11:45 pmNNW 15.9 25.1------ 29.1- 24.6---
2024-02-28 11:34 pmNNW 15.9 24.1------ 29.1- 24.6---
2024-02-28 11:24 pmNNW 15.9 24.1------ 29.1- 24.6---
2024-02-28 11:15 pmNNW 17.1 25.1------ 29.3- 24.8---
2024-02-28 11:05 pmNNW 17.1 25.1------ 29.1- 25.0---
2024-02-28 10:55 pmNNW 15.9 24.1------ 29.3- 25.2---
2024-02-28 10:45 pmNNW 15.0 24.1------ 29.3- 25.3---
2024-02-28 10:34 pmNNW 15.0 22.0------ 29.5- 25.7---
2024-02-28 10:25 pmNNW 14.0 24.1------ 29.7- 25.3---
2024-02-28 10:14 pmNNW 13.0 19.0------ 29.8- 25.2---
2024-02-28 10:04 pmNNW 14.0 22.0------ 30.0- 25.2---
2024-02-28 09:54 pmNNW 14.0 21.0------ 30.2- 25.2---
2024-02-28 09:44 pm NW 13.0 22.9------ 30.0- 25.2---
2024-02-28 09:34 pmNNW 15.0 24.1------ 30.2- 25.0---
2024-02-28 09:24 pmNNW 15.0 26.0------ 30.2- 25.5---
2024-02-28 09:14 pmNNW 15.9 26.0------ 30.2- 25.5---
2024-02-28 09:04 pmNNW 15.9 28.0------ 30.2- 25.9---
2024-02-28 08:54 pmNNW 17.1 22.9------ 30.0- 26.4---
2024-02-28 08:44 pmNNW 18.1 25.1------ 30.0- 26.6---
2024-02-28 08:34 pmNNW 19.0 28.0------ 30.2- 27.0---
2024-02-28 08:25 pmNNW 17.1 25.1------ 30.6- 27.1---
2024-02-28 08:15 pm N 9.9 26.0------ 30.7- 27.1---
2024-02-28 08:04 pm N 9.9 26.0------ 30.7- 27.3---
2024-02-28 07:55 pm N 13.0 26.0------ 30.6- 27.9---
2024-02-28 07:45 pm N 8.9 27.0------ 30.4- 28.8---
2024-02-28 07:35 pmNNW 11.1 25.1------ 29.8- 29.1---
2024-02-28 07:25 pm N 8.0 15.0------ 29.7- 29.1---
2024-02-28 07:15 pmNNW 21.0 28.9------ 29.8- 28.9---
2024-02-28 07:05 pm N 6.0 22.9------ 30.4- 29.3---
2024-02-28 06:55 pm E 5.1 17.1------ 30.2- 29.3---
2024-02-28 06:44 pmENE 6.0 21.0------ 30.2- 28.9---
2024-02-28 06:34 pm N 8.9 22.0------ 30.0- 28.6---
2024-02-28 06:24 pm N 8.9 26.0------ 30.2- 28.8---
2024-02-28 06:15 pmNNE 8.9 25.1------ 30.4- 29.1---
2024-02-28 06:04 pmESE 7.0 18.1------ 30.6- 28.8---
2024-02-28 05:54 pm SW 8.0 29.9------ 30.4- 29.1---
2024-02-28 05:44 pmSSE 7.0 24.1------ 30.4- 29.3---
2024-02-28 05:34 pm SW 8.9 28.9------ 30.2- 29.5---
2024-02-28 05:24 pm SE 8.0 22.9------ 30.0- 29.5---
2024-02-28 05:14 pmSSE 7.0 26.0------ 29.8- 29.5---
2024-02-28 05:05 pm S 7.0 25.1------ 29.8- 29.7---
2024-02-28 04:55 pm E 8.0 24.1------ 29.8- 29.8---
2024-02-28 04:45 pmSSW 8.0 22.9------ 29.7- 29.7---
2024-02-28 04:35 pm SW 8.0 26.0------ 29.8- 29.8---
2024-02-28 04:24 pmWSW 8.9 22.9------ 29.7- 29.7---
2024-02-28 04:15 pm SW 8.9 31.1------ 29.7- 29.7---
2024-02-28 04:05 pmWSW 14.0 32.1------ 29.5- 29.5---
2024-02-28 03:54 pmWSW 13.0 28.9------ 29.3- 29.3---